sensor_id;sensor_type;location;lat;lon;timestamp;temperature;humidity
67547;HTU21D;54381;53.516;49.424;2022-08-25T00:01:24;21.72;50.48
67547;HTU21D;54381;53.516;49.424;2022-08-25T00:03:51;21.80;48.11
67547;HTU21D;54381;53.516;49.424;2022-08-25T00:06:18;21.78;48.96
67547;HTU21D;54381;53.516;49.424;2022-08-25T00:08:44;21.93;47.79
67547;HTU21D;54381;53.516;49.424;2022-08-25T00:11:17;21.79;48.24
67547;HTU21D;54381;53.516;49.424;2022-08-25T00:13:48;21.59;49.21
67547;HTU21D;54381;53.516;49.424;2022-08-25T00:16:17;21.49;47.66
67547;HTU21D;54381;53.516;49.424;2022-08-25T00:18:46;21.16;49.18
67547;HTU21D;54381;53.516;49.424;2022-08-25T00:21:15;21.10;49.95
67547;HTU21D;54381;53.516;49.424;2022-08-25T00:23:41;21.27;49.16
67547;HTU21D;54381;53.516;49.424;2022-08-25T00:26:09;21.39;48.78
67547;HTU21D;54381;53.516;49.424;2022-08-25T00:28:35;21.24;49.12
67547;HTU21D;54381;53.516;49.424;2022-08-25T00:31:02;21.30;47.90
67547;HTU21D;54381;53.516;49.424;2022-08-25T00:33:29;21.00;49.11
67547;HTU21D;54381;53.516;49.424;2022-08-25T00:35:59;21.18;48.57
67547;HTU21D;54381;53.516;49.424;2022-08-25T00:38:25;20.62;50.57
67547;HTU21D;54381;53.516;49.424;2022-08-25T00:40:53;20.45;51.59
67547;HTU21D;54381;53.516;49.424;2022-08-25T00:46:08;20.70;50.13
67547;HTU21D;54381;53.516;49.424;2022-08-25T00:48:35;20.94;49.21
67547;HTU21D;54381;53.516;49.424;2022-08-25T00:51:03;21.53;48.47
67547;HTU21D;54381;53.516;49.424;2022-08-25T00:53:31;21.92;47.05
67547;HTU21D;54381;53.516;49.424;2022-08-25T00:55:58;22.10;46.54
67547;HTU21D;54381;53.516;49.424;2022-08-25T00:58:26;21.96;47.12
67547;HTU21D;54381;53.516;49.424;2022-08-25T01:00:56;22.03;46.96
67547;HTU21D;54381;53.516;49.424;2022-08-25T01:03:25;22.11;46.70
67547;HTU21D;54381;53.516;49.424;2022-08-25T01:05:53;22.21;46.24
67547;HTU21D;54381;53.516;49.424;2022-08-25T01:08:25;22.11;46.15
67547;HTU21D;54381;53.516;49.424;2022-08-25T01:10:53;21.88;47.28
67547;HTU21D;54381;53.516;49.424;2022-08-25T01:13:31;21.88;47.48
67547;HTU21D;54381;53.516;49.424;2022-08-25T01:15:58;22.10;46.77
67547;HTU21D;54381;53.516;49.424;2022-08-25T01:18:25;22.19;46.47
67547;HTU21D;54381;53.516;49.424;2022-08-25T01:20:56;22.04;47.44
67547;HTU21D;54381;53.516;49.424;2022-08-25T01:23:23;22.23;46.75
67547;HTU21D;54381;53.516;49.424;2022-08-25T01:26:12;22.32;46.28
67547;HTU21D;54381;53.516;49.424;2022-08-25T01:28:41;21.81;48.03
67547;HTU21D;54381;53.516;49.424;2022-08-25T01:31:28;21.32;49.43
67547;HTU21D;54381;53.516;49.424;2022-08-25T01:33:55;21.30;49.58
67547;HTU21D;54381;53.516;49.424;2022-08-25T01:36:22;21.06;50.58
67547;HTU21D;54381;53.516;49.424;2022-08-25T01:38:48;21.66;49.00
67547;HTU21D;54381;53.516;49.424;2022-08-25T01:44:07;21.87;48.70
67547;HTU21D;54381;53.516;49.424;2022-08-25T01:46:33;22.35;47.42
67547;HTU21D;54381;53.516;49.424;2022-08-25T01:49:00;22.18;48.12
67547;HTU21D;54381;53.516;49.424;2022-08-25T01:51:29;21.79;49.18
67547;HTU21D;54381;53.516;49.424;2022-08-25T01:53:58;22.08;48.52
67547;HTU21D;54381;53.516;49.424;2022-08-25T01:56:24;21.74;50.00
67547;HTU21D;54381;53.516;49.424;2022-08-25T01:58:50;21.31;50.79
67547;HTU21D;54381;53.516;49.424;2022-08-25T02:01:20;21.52;50.40
67547;HTU21D;54381;53.516;49.424;2022-08-25T02:03:49;21.77;49.63
67547;HTU21D;54381;53.516;49.424;2022-08-25T02:06:22;21.53;50.66
67547;HTU21D;54381;53.516;49.424;2022-08-25T02:08:58;21.91;49.28
67547;HTU21D;54381;53.516;49.424;2022-08-25T02:11:26;22.11;49.15
67547;HTU21D;54381;53.516;49.424;2022-08-25T02:13:53;21.94;49.56
67547;HTU21D;54381;53.516;49.424;2022-08-25T02:16:23;22.14;49.05
67547;HTU21D;54381;53.516;49.424;2022-08-25T02:18:50;22.12;49.18
67547;HTU21D;54381;53.516;49.424;2022-08-25T02:21:17;22.26;49.04
67547;HTU21D;54381;53.516;49.424;2022-08-25T02:23:44;21.82;50.15
67547;HTU21D;54381;53.516;49.424;2022-08-25T02:26:10;22.05;49.71
67547;HTU21D;54381;53.516;49.424;2022-08-25T02:28:37;22.12;49.50
67547;HTU21D;54381;53.516;49.424;2022-08-25T02:31:04;21.95;50.21
67547;HTU21D;54381;53.516;49.424;2022-08-25T02:33:30;21.58;51.64
67547;HTU21D;54381;53.516;49.424;2022-08-25T02:36:00;21.89;50.44
67547;HTU21D;54381;53.516;49.424;2022-08-25T02:38:27;22.23;49.72
67547;HTU21D;54381;53.516;49.424;2022-08-25T02:40:55;22.39;49.26
67547;HTU21D;54381;53.516;49.424;2022-08-25T02:43:21;22.78;48.47
67547;HTU21D;54381;53.516;49.424;2022-08-25T02:45:47;22.43;49.73
67547;HTU21D;54381;53.516;49.424;2022-08-25T02:48:13;22.10;50.43
67547;HTU21D;54381;53.516;49.424;2022-08-25T02:50:39;22.58;49.21
67547;HTU21D;54381;53.516;49.424;2022-08-25T02:53:06;22.92;48.21
67547;HTU21D;54381;53.516;49.424;2022-08-25T02:55:32;23.38;47.47
67547;HTU21D;54381;53.516;49.424;2022-08-25T02:57:58;23.16;48.06
67547;HTU21D;54381;53.516;49.424;2022-08-25T03:00:24;23.17;47.86
67547;HTU21D;54381;53.516;49.424;2022-08-25T03:02:51;23.07;48.28
67547;HTU21D;54381;53.516;49.424;2022-08-25T03:05:17;23.72;46.79
67547;HTU21D;54381;53.516;49.424;2022-08-25T03:07:43;24.19;45.33
67547;HTU21D;54381;53.516;49.424;2022-08-25T03:10:13;23.89;46.26
67547;HTU21D;54381;53.516;49.424;2022-08-25T03:12:41;23.67;47.12
67547;HTU21D;54381;53.516;49.424;2022-08-25T03:15:08;24.12;45.86
67547;HTU21D;54381;53.516;49.424;2022-08-25T03:17:35;24.33;45.57
67547;HTU21D;54381;53.516;49.424;2022-08-25T03:20:04;24.21;45.86
67547;HTU21D;54381;53.516;49.424;2022-08-25T03:22:31;24.45;45.50
67547;HTU21D;54381;53.516;49.424;2022-08-25T03:24:57;25.24;43.63
67547;HTU21D;54381;53.516;49.424;2022-08-25T03:27:43;25.94;41.71
67547;HTU21D;54381;53.516;49.424;2022-08-25T03:30:10;27.23;38.94
67547;HTU21D;54381;53.516;49.424;2022-08-25T03:32:36;27.36;38.80
67547;HTU21D;54381;53.516;49.424;2022-08-25T03:35:03;26.46;41.50
67547;HTU21D;54381;53.516;49.424;2022-08-25T03:37:29;26.33;41.58
67547;HTU21D;54381;53.516;49.424;2022-08-25T03:39:55;26.60;40.97
67547;HTU21D;54381;53.516;49.424;2022-08-25T03:42:22;28.59;36.66
67547;HTU21D;54381;53.516;49.424;2022-08-25T03:44:48;31.22;30.50
67547;HTU21D;54381;53.516;49.424;2022-08-25T03:47:14;31.81;29.54
67547;HTU21D;54381;53.516;49.424;2022-08-25T03:49:40;30.27;32.25
67547;HTU21D;54381;53.516;49.424;2022-08-25T03:52:06;29.35;34.38
67547;HTU21D;54381;53.516;49.424;2022-08-25T03:54:32;31.08;30.83
67547;HTU21D;54381;53.516;49.424;2022-08-25T03:56:59;31.50;30.04
67547;HTU21D;54381;53.516;49.424;2022-08-25T03:59:25;29.48;34.08
67547;HTU21D;54381;53.516;49.424;2022-08-25T04:01:52;27.56;37.59
67547;HTU21D;54381;53.516;49.424;2022-08-25T04:04:18;26.99;39.05
67547;HTU21D;54381;53.516;49.424;2022-08-25T04:06:45;27.95;36.99
67547;HTU21D;54381;53.516;49.424;2022-08-25T04:09:12;28.79;34.92
67547;HTU21D;54381;53.516;49.424;2022-08-25T04:11:38;28.11;36.28
67547;HTU21D;54381;53.516;49.424;2022-08-25T04:14:05;27.06;39.04
67547;HTU21D;54381;53.516;49.424;2022-08-25T04:16:33;27.07;39.03
67547;HTU21D;54381;53.516;49.424;2022-08-25T04:19:00;26.91;39.72
67547;HTU21D;54381;53.516;49.424;2022-08-25T04:21:27;26.27;40.23
67547;HTU21D;54381;53.516;49.424;2022-08-25T04:23:55;27.04;39.54
67547;HTU21D;54381;53.516;49.424;2022-08-25T04:26:33;27.80;37.96
67547;HTU21D;54381;53.516;49.424;2022-08-25T04:29:01;27.81;38.08
67547;HTU21D;54381;53.516;49.424;2022-08-25T04:31:29;26.52;40.98
67547;HTU21D;54381;53.516;49.424;2022-08-25T04:33:56;26.17;41.20
67547;HTU21D;54381;53.516;49.424;2022-08-25T04:36:22;25.99;41.50
67547;HTU21D;54381;53.516;49.424;2022-08-25T04:38:49;26.20;39.93
67547;HTU21D;54381;53.516;49.424;2022-08-25T04:41:18;25.68;41.36
67547;HTU21D;54381;53.516;49.424;2022-08-25T04:43:45;25.31;42.71
67547;HTU21D;54381;53.516;49.424;2022-08-25T04:46:18;25.72;41.33
67547;HTU21D;54381;53.516;49.424;2022-08-25T04:48:44;26.18;39.16
67547;HTU21D;54381;53.516;49.424;2022-08-25T04:51:14;26.01;39.52
67547;HTU21D;54381;53.516;49.424;2022-08-25T04:53:41;26.56;39.07
67547;HTU21D;54381;53.516;49.424;2022-08-25T04:56:10;28.01;34.86
67547;HTU21D;54381;53.516;49.424;2022-08-25T04:58:37;29.59;31.83
67547;HTU21D;54381;53.516;49.424;2022-08-25T05:01:05;29.54;31.99
67547;HTU21D;54381;53.516;49.424;2022-08-25T05:03:31;30.40;30.69
67547;HTU21D;54381;53.516;49.424;2022-08-25T05:05:57;32.70;26.39
67547;HTU21D;54381;53.516;49.424;2022-08-25T05:08:24;35.06;22.78
67547;HTU21D;54381;53.516;49.424;2022-08-25T05:10:50;37.45;19.69
67547;HTU21D;54381;53.516;49.424;2022-08-25T05:13:20;38.48;18.25
67547;HTU21D;54381;53.516;49.424;2022-08-25T05:15:54;38.70;17.16
67547;HTU21D;54381;53.516;49.424;2022-08-25T05:18:22;39.62;16.75
67547;HTU21D;54381;53.516;49.424;2022-08-25T05:20:49;39.72;16.38
67547;HTU21D;54381;53.516;49.424;2022-08-25T05:23:15;39.83;16.09
67547;HTU21D;54381;53.516;49.424;2022-08-25T05:25:42;40.16;16.09
67547;HTU21D;54381;53.516;49.424;2022-08-25T05:28:09;39.79;16.64
67547;HTU21D;54381;53.516;49.424;2022-08-25T05:30:40;40.17;15.84
67547;HTU21D;54381;53.516;49.424;2022-08-25T05:33:07;40.70;15.45
67547;HTU21D;54381;53.516;49.424;2022-08-25T05:35:34;40.81;14.58
67547;HTU21D;54381;53.516;49.424;2022-08-25T05:38:04;40.92;13.81
67547;HTU21D;54381;53.516;49.424;2022-08-25T05:40:31;41.12;14.21
67547;HTU21D;54381;53.516;49.424;2022-08-25T05:42:57;41.10;14.18
67547;HTU21D;54381;53.516;49.424;2022-08-25T05:45:24;41.45;13.89
67547;HTU21D;54381;53.516;49.424;2022-08-25T05:47:50;41.73;13.74
67547;HTU21D;54381;53.516;49.424;2022-08-25T05:50:17;41.93;14.10
67547;HTU21D;54381;53.516;49.424;2022-08-25T05:52:44;41.56;14.09
67547;HTU21D;54381;53.516;49.424;2022-08-25T05:55:10;41.52;14.29
67547;HTU21D;54381;53.516;49.424;2022-08-25T05:57:36;41.84;14.09
67547;HTU21D;54381;53.516;49.424;2022-08-25T06:00:07;41.65;13.82
67547;HTU21D;54381;53.516;49.424;2022-08-25T06:02:34;41.93;13.63
67547;HTU21D;54381;53.516;49.424;2022-08-25T06:05:15;42.44;13.62
67547;HTU21D;54381;53.516;49.424;2022-08-25T06:07:43;42.97;13.11
67547;HTU21D;54381;53.516;49.424;2022-08-25T06:10:10;42.51;13.68
67547;HTU21D;54381;53.516;49.424;2022-08-25T06:12:37;42.75;13.08
67547;HTU21D;54381;53.516;49.424;2022-08-25T06:15:04;42.13;13.70
67547;HTU21D;54381;53.516;49.424;2022-08-25T06:17:30;42.48;13.75
67547;HTU21D;54381;53.516;49.424;2022-08-25T06:19:57;42.73;14.01
67547;HTU21D;54381;53.516;49.424;2022-08-25T06:22:23;42.65;13.20
67547;HTU21D;54381;53.516;49.424;2022-08-25T06:24:50;42.98;12.84
67547;HTU21D;54381;53.516;49.424;2022-08-25T06:27:16;42.99;12.57
67547;HTU21D;54381;53.516;49.424;2022-08-25T06:29:43;42.76;13.55
67547;HTU21D;54381;53.516;49.424;2022-08-25T06:32:09;42.92;13.22
67547;HTU21D;54381;53.516;49.424;2022-08-25T06:34:35;42.60;13.24
67547;HTU21D;54381;53.516;49.424;2022-08-25T06:37:02;43.00;12.88
67547;HTU21D;54381;53.516;49.424;2022-08-25T06:39:28;42.38;13.11
67547;HTU21D;54381;53.516;49.424;2022-08-25T06:41:55;42.38;13.97
67547;HTU21D;54381;53.516;49.424;2022-08-25T06:44:22;42.63;13.38
67547;HTU21D;54381;53.516;49.424;2022-08-25T06:46:49;42.25;14.02
67547;HTU21D;54381;53.516;49.424;2022-08-25T06:49:15;42.25;13.90
67547;HTU21D;54381;53.516;49.424;2022-08-25T06:51:41;42.20;13.59
67547;HTU21D;54381;53.516;49.424;2022-08-25T06:54:08;41.88;13.87
67547;HTU21D;54381;53.516;49.424;2022-08-25T06:56:35;42.22;13.43
67547;HTU21D;54381;53.516;49.424;2022-08-25T06:59:03;39.76;15.68
67547;HTU21D;54381;53.516;49.424;2022-08-25T07:01:30;37.38;19.29
67547;HTU21D;54381;53.516;49.424;2022-08-25T07:03:58;36.40;20.38
67547;HTU21D;54381;53.516;49.424;2022-08-25T07:06:27;37.97;17.58
67547;HTU21D;54381;53.516;49.424;2022-08-25T07:08:54;36.99;19.43
67547;HTU21D;54381;53.516;49.424;2022-08-25T07:11:20;36.44;19.99
67547;HTU21D;54381;53.516;49.424;2022-08-25T07:13:47;37.36;18.84
67547;HTU21D;54381;53.516;49.424;2022-08-25T07:16:14;37.38;18.62
67547;HTU21D;54381;53.516;49.424;2022-08-25T07:18:40;36.87;19.94
67547;HTU21D;54381;53.516;49.424;2022-08-25T07:21:07;36.73;19.95
67547;HTU21D;54381;53.516;49.424;2022-08-25T07:23:33;36.33;20.45
67547;HTU21D;54381;53.516;49.424;2022-08-25T07:26:10;35.41;20.47
67547;HTU21D;54381;53.516;49.424;2022-08-25T07:28:36;36.01;20.31
67547;HTU21D;54381;53.516;49.424;2022-08-25T07:31:04;38.60;17.19
67547;HTU21D;54381;53.516;49.424;2022-08-25T07:33:30;39.84;16.40
67547;HTU21D;54381;53.516;49.424;2022-08-25T07:35:56;39.68;15.41
67547;HTU21D;54381;53.516;49.424;2022-08-25T07:38:23;38.36;16.45
67547;HTU21D;54381;53.516;49.424;2022-08-25T07:40:49;37.70;17.74
67547;HTU21D;54381;53.516;49.424;2022-08-25T07:43:20;38.26;17.90
67547;HTU21D;54381;53.516;49.424;2022-08-25T07:45:47;39.20;16.98
67547;HTU21D;54381;53.516;49.424;2022-08-25T07:48:14;39.08;17.46
67547;HTU21D;54381;53.516;49.424;2022-08-25T07:50:42;39.56;16.30
67547;HTU21D;54381;53.516;49.424;2022-08-25T07:53:14;39.99;15.29
67547;HTU21D;54381;53.516;49.424;2022-08-25T07:55:41;39.70;15.38
67547;HTU21D;54381;53.516;49.424;2022-08-25T07:58:08;40.26;14.71
67547;HTU21D;54381;53.516;49.424;2022-08-25T08:00:36;41.07;14.07
67547;HTU21D;54381;53.516;49.424;2022-08-25T08:03:07;40.43;12.43
67547;HTU21D;54381;53.516;49.424;2022-08-25T08:05:33;41.04;11.53
67547;HTU21D;54381;53.516;49.424;2022-08-25T08:08:02;40.95;11.33
67547;HTU21D;54381;53.516;49.424;2022-08-25T08:10:28;41.05;10.54
67547;HTU21D;54381;53.516;49.424;2022-08-25T08:12:54;41.63;10.08
67547;HTU21D;54381;53.516;49.424;2022-08-25T08:15:21;42.13;9.92
67547;HTU21D;54381;53.516;49.424;2022-08-25T08:17:47;41.89;9.89
67547;HTU21D;54381;53.516;49.424;2022-08-25T08:20:13;40.88;11.30
67547;HTU21D;54381;53.516;49.424;2022-08-25T08:22:41;41.14;11.66
67547;HTU21D;54381;53.516;49.424;2022-08-25T08:25:09;40.42;13.86
67547;HTU21D;54381;53.516;49.424;2022-08-25T08:27:36;39.34;15.51
67547;HTU21D;54381;53.516;49.424;2022-08-25T08:30:04;37.07;18.74
67547;HTU21D;54381;53.516;49.424;2022-08-25T08:32:30;35.69;20.76
67547;HTU21D;54381;53.516;49.424;2022-08-25T08:34:57;34.68;22.01
67547;HTU21D;54381;53.516;49.424;2022-08-25T08:37:23;34.49;22.66
67547;HTU21D;54381;53.516;49.424;2022-08-25T08:39:49;34.39;22.19
67547;HTU21D;54381;53.516;49.424;2022-08-25T08:45:47;33.83;21.53
67547;HTU21D;54381;53.516;49.424;2022-08-25T08:51:21;33.42;22.89
67547;HTU21D;54381;53.516;49.424;2022-08-25T08:56:24;33.47;23.07
67547;HTU21D;54381;53.516;49.424;2022-08-25T08:59:04;33.44;23.28
67547;HTU21D;54381;53.516;49.424;2022-08-25T09:01:32;33.91;23.19
67547;HTU21D;54381;53.516;49.424;2022-08-25T09:07:23;33.50;24.17
67547;HTU21D;54381;53.516;49.424;2022-08-25T09:09:53;32.96;24.49
67547;HTU21D;54381;53.516;49.424;2022-08-25T09:12:33;32.22;25.30
67547;HTU21D;54381;53.516;49.424;2022-08-25T09:18:15;31.84;26.13
67547;HTU21D;54381;53.516;49.424;2022-08-25T09:21:10;31.80;26.01
67547;HTU21D;54381;53.516;49.424;2022-08-25T09:32:17;32.03;26.73
67547;HTU21D;54381;53.516;49.424;2022-08-25T09:34:44;32.07;25.76
67547;HTU21D;54381;53.516;49.424;2022-08-25T09:37:12;31.90;26.60
67547;HTU21D;54381;53.516;49.424;2022-08-25T09:39:39;31.97;26.33
67547;HTU21D;54381;53.516;49.424;2022-08-25T09:42:07;32.11;26.16
67547;HTU21D;54381;53.516;49.424;2022-08-25T09:44:41;32.15;26.19
67547;HTU21D;54381;53.516;49.424;2022-08-25T09:49:49;31.44;25.39
67547;HTU21D;54381;53.516;49.424;2022-08-25T09:54:55;31.59;25.64
67547;HTU21D;54381;53.516;49.424;2022-08-25T10:00:26;31.53;24.73
67547;HTU21D;54381;53.516;49.424;2022-08-25T10:03:13;31.45;24.89
67547;HTU21D;54381;53.516;49.424;2022-08-25T10:06:00;31.65;25.72
67547;HTU21D;54381;53.516;49.424;2022-08-25T10:08:32;31.93;25.10
67547;HTU21D;54381;53.516;49.424;2022-08-25T10:11:03;32.02;25.15
67547;HTU21D;54381;53.516;49.424;2022-08-25T10:13:49;32.10;24.14
67547;HTU21D;54381;53.516;49.424;2022-08-25T10:16:28;32.07;24.55
67547;HTU21D;54381;53.516;49.424;2022-08-25T10:19:10;31.95;24.72
67547;HTU21D;54381;53.516;49.424;2022-08-25T10:21:41;31.61;27.57
67547;HTU21D;54381;53.516;49.424;2022-08-25T10:24:09;31.51;27.45
67547;HTU21D;54381;53.516;49.424;2022-08-25T10:32:21;31.88;26.00
67547;HTU21D;54381;53.516;49.424;2022-08-25T10:34:54;32.08;24.94
67547;HTU21D;54381;53.516;49.424;2022-08-25T10:45:47;32.34;23.94
67547;HTU21D;54381;53.516;49.424;2022-08-25T10:57:01;32.05;24.61
67547;HTU21D;54381;53.516;49.424;2022-08-25T11:05:39;31.93;24.67
67547;HTU21D;54381;53.516;49.424;2022-08-25T11:13:12;31.66;25.57
67547;HTU21D;54381;53.516;49.424;2022-08-25T11:15:53;31.75;24.21
67547;HTU21D;54381;53.516;49.424;2022-08-25T11:18:21;31.85;24.06
67547;HTU21D;54381;53.516;49.424;2022-08-25T11:21:04;31.84;24.30
67547;HTU21D;54381;53.516;49.424;2022-08-25T11:24:30;31.73;23.92
67547;HTU21D;54381;53.516;49.424;2022-08-25T11:26:58;31.70;25.04
67547;HTU21D;54381;53.516;49.424;2022-08-25T11:29:29;31.66;25.46
67547;HTU21D;54381;53.516;49.424;2022-08-25T11:31:59;31.88;25.82
67547;HTU21D;54381;53.516;49.424;2022-08-25T11:34:30;31.95;24.72
67547;HTU21D;54381;53.516;49.424;2022-08-25T11:37:02;31.87;23.47
67547;HTU21D;54381;53.516;49.424;2022-08-25T11:39:50;31.93;24.49
67547;HTU21D;54381;53.516;49.424;2022-08-25T11:47:40;32.05;25.15
67547;HTU21D;54381;53.516;49.424;2022-08-25T11:50:25;32.04;26.10
67547;HTU21D;54381;53.516;49.424;2022-08-25T11:52:58;31.85;26.59
67547;HTU21D;54381;53.516;49.424;2022-08-25T12:00:44;31.37;27.28
67547;HTU21D;54381;53.516;49.424;2022-08-25T12:09:14;31.44;26.72
67547;HTU21D;54381;53.516;49.424;2022-08-25T12:27:30;30.86;27.96
67547;HTU21D;54381;53.516;49.424;2022-08-25T12:35:49;30.93;27.71
67547;HTU21D;54381;53.516;49.424;2022-08-25T12:43:42;30.77;27.75
67547;HTU21D;54381;53.516;49.424;2022-08-25T12:48:54;30.74;28.10
67547;HTU21D;54381;53.516;49.424;2022-08-25T12:51:22;30.70;28.55
67547;HTU21D;54381;53.516;49.424;2022-08-25T12:53:56;30.64;28.89
67547;HTU21D;54381;53.516;49.424;2022-08-25T12:56:49;30.57;29.22
67547;HTU21D;54381;53.516;49.424;2022-08-25T12:59:51;30.48;29.34
67547;HTU21D;54381;53.516;49.424;2022-08-25T13:05:20;30.45;29.57
67547;HTU21D;54381;53.516;49.424;2022-08-25T13:10:51;30.41;29.39
67547;HTU21D;54381;53.516;49.424;2022-08-25T13:13:36;30.36;29.63
67547;HTU21D;54381;53.516;49.424;2022-08-25T13:16:07;30.32;29.59
67547;HTU21D;54381;53.516;49.424;2022-08-25T13:18:36;30.22;29.59
67547;HTU21D;54381;53.516;49.424;2022-08-25T13:21:18;30.13;29.68
67547;HTU21D;54381;53.516;49.424;2022-08-25T13:23:47;30.05;29.62
67547;HTU21D;54381;53.516;49.424;2022-08-25T13:26:20;30.02;29.41
67547;HTU21D;54381;53.516;49.424;2022-08-25T13:28:56;30.07;29.46
67547;HTU21D;54381;53.516;49.424;2022-08-25T13:31:22;30.05;29.53
67547;HTU21D;54381;53.516;49.424;2022-08-25T13:33:59;29.95;29.48
67547;HTU21D;54381;53.516;49.424;2022-08-25T13:36:29;29.85;29.71
67547;HTU21D;54381;53.516;49.424;2022-08-25T13:39:19;29.78;30.12
67547;HTU21D;54381;53.516;49.424;2022-08-25T13:41:49;29.78;30.38
67547;HTU21D;54381;53.516;49.424;2022-08-25T13:44:16;29.74;30.39
67547;HTU21D;54381;53.516;49.424;2022-08-25T13:46:43;29.75;30.41
67547;HTU21D;54381;53.516;49.424;2022-08-25T13:49:10;29.70;30.87
67547;HTU21D;54381;53.516;49.424;2022-08-25T13:51:38;29.65;30.85
67547;HTU21D;54381;53.516;49.424;2022-08-25T13:54:34;29.60;30.92
67547;HTU21D;54381;53.516;49.424;2022-08-25T13:57:22;29.65;31.32
67547;HTU21D;54381;53.516;49.424;2022-08-25T13:59:52;29.62;31.63
67547;HTU21D;54381;53.516;49.424;2022-08-25T14:02:44;29.60;32.08
67547;HTU21D;54381;53.516;49.424;2022-08-25T14:05:13;29.56;32.51
67547;HTU21D;54381;53.516;49.424;2022-08-25T14:07:39;29.52;32.72
67547;HTU21D;54381;53.516;49.424;2022-08-25T14:10:09;29.47;32.62
67547;HTU21D;54381;53.516;49.424;2022-08-25T14:12:43;29.45;33.04
67547;HTU21D;54381;53.516;49.424;2022-08-25T14:17:58;29.23;33.68
67547;HTU21D;54381;53.516;49.424;2022-08-25T14:20:27;29.18;33.97
67547;HTU21D;54381;53.516;49.424;2022-08-25T14:23:01;29.12;34.30
67547;HTU21D;54381;53.516;49.424;2022-08-25T14:25:28;29.06;34.98
67547;HTU21D;54381;53.516;49.424;2022-08-25T14:27:57;29.00;34.92
67547;HTU21D;54381;53.516;49.424;2022-08-25T14:30:24;28.94;35.61
67547;HTU21D;54381;53.516;49.424;2022-08-25T14:32:51;28.89;35.95
67547;HTU21D;54381;53.516;49.424;2022-08-25T14:35:17;28.85;36.27
67547;HTU21D;54381;53.516;49.424;2022-08-25T14:37:44;28.78;36.56
67547;HTU21D;54381;53.516;49.424;2022-08-25T14:40:11;28.73;37.16
67547;HTU21D;54381;53.516;49.424;2022-08-25T14:42:40;28.67;37.34
67547;HTU21D;54381;53.516;49.424;2022-08-25T14:45:06;28.62;37.66
67547;HTU21D;54381;53.516;49.424;2022-08-25T14:47:33;28.57;37.95
67547;HTU21D;54381;53.516;49.424;2022-08-25T14:50:00;28.52;38.19
67547;HTU21D;54381;53.516;49.424;2022-08-25T14:52:28;28.47;38.39
67547;HTU21D;54381;53.516;49.424;2022-08-25T14:54:55;28.40;39.71
67547;HTU21D;54381;53.516;49.424;2022-08-25T14:57:23;28.37;40.44
67547;HTU21D;54381;53.516;49.424;2022-08-25T14:59:49;28.30;40.66
67547;HTU21D;54381;53.516;49.424;2022-08-25T15:02:17;28.21;41.66
67547;HTU21D;54381;53.516;49.424;2022-08-25T15:04:57;28.14;41.91
67547;HTU21D;54381;53.516;49.424;2022-08-25T15:07:25;28.09;42.16
67547;HTU21D;54381;53.516;49.424;2022-08-25T15:10:10;27.98;42.35
67547;HTU21D;54381;53.516;49.424;2022-08-25T15:12:36;27.94;42.94
67547;HTU21D;54381;53.516;49.424;2022-08-25T15:15:06;27.82;43.60
67547;HTU21D;54381;53.516;49.424;2022-08-25T15:17:32;27.72;43.35
67547;HTU21D;54381;53.516;49.424;2022-08-25T15:19:58;27.63;43.21
67547;HTU21D;54381;53.516;49.424;2022-08-25T15:22:24;27.52;44.81
67547;HTU21D;54381;53.516;49.424;2022-08-25T15:24:50;27.43;44.43
67547;HTU21D;54381;53.516;49.424;2022-08-25T15:27:19;27.36;44.65
67547;HTU21D;54381;53.516;49.424;2022-08-25T15:29:46;27.28;44.91
67547;HTU21D;54381;53.516;49.424;2022-08-25T15:32:12;27.23;44.78
67547;HTU21D;54381;53.516;49.424;2022-08-25T15:34:38;27.17;44.93
67547;HTU21D;54381;53.516;49.424;2022-08-25T15:37:07;27.12;44.89
67547;HTU21D;54381;53.516;49.424;2022-08-25T15:39:35;27.04;45.88
67547;HTU21D;54381;53.516;49.424;2022-08-25T15:42:02;26.97;44.47
67547;HTU21D;54381;53.516;49.424;2022-08-25T15:44:28;26.92;46.05
67547;HTU21D;54381;53.516;49.424;2022-08-25T15:46:57;26.83;45.05
67547;HTU21D;54381;53.516;49.424;2022-08-25T15:49:25;26.78;47.15
67547;HTU21D;54381;53.516;49.424;2022-08-25T15:51:52;26.68;46.03
67547;HTU21D;54381;53.516;49.424;2022-08-25T15:54:19;26.64;46.61
67547;HTU21D;54381;53.516;49.424;2022-08-25T15:56:45;26.54;47.60
67547;HTU21D;54381;53.516;49.424;2022-08-25T15:59:12;26.47;46.37
67547;HTU21D;54381;53.516;49.424;2022-08-25T16:01:39;26.46;47.67
67547;HTU21D;54381;53.516;49.424;2022-08-25T16:04:06;26.47;46.89
67547;HTU21D;54381;53.516;49.424;2022-08-25T16:06:32;26.48;46.74
67547;HTU21D;54381;53.516;49.424;2022-08-25T16:08:59;26.42;47.70
67547;HTU21D;54381;53.516;49.424;2022-08-25T16:11:27;26.31;47.09
67547;HTU21D;54381;53.516;49.424;2022-08-25T16:13:55;26.33;47.16
67547;HTU21D;54381;53.516;49.424;2022-08-25T16:16:23;26.40;46.92
67547;HTU21D;54381;53.516;49.424;2022-08-25T16:18:50;26.36;47.50
67547;HTU21D;54381;53.516;49.424;2022-08-25T16:21:23;26.22;47.17
67547;HTU21D;54381;53.516;49.424;2022-08-25T16:23:53;26.21;48.14
67547;HTU21D;54381;53.516;49.424;2022-08-25T16:26:20;26.17;47.75
67547;HTU21D;54381;53.516;49.424;2022-08-25T16:28:46;26.16;48.03
67547;HTU21D;54381;53.516;49.424;2022-08-25T16:31:14;26.15;48.45
67547;HTU21D;54381;53.516;49.424;2022-08-25T16:33:41;26.15;49.37
67547;HTU21D;54381;53.516;49.424;2022-08-25T16:36:15;26.04;49.63
67547;HTU21D;54381;53.516;49.424;2022-08-25T16:38:42;26.01;50.50
67547;HTU21D;54381;53.516;49.424;2022-08-25T16:41:11;25.86;49.55
67547;HTU21D;54381;53.516;49.424;2022-08-25T16:43:37;25.96;49.40
67547;HTU21D;54381;53.516;49.424;2022-08-25T16:46:06;25.89;49.46
67547;HTU21D;54381;53.516;49.424;2022-08-25T16:48:34;25.80;50.28
67547;HTU21D;54381;53.516;49.424;2022-08-25T16:51:07;25.81;49.52
67547;HTU21D;54381;53.516;49.424;2022-08-25T16:53:33;25.86;51.30
67547;HTU21D;54381;53.516;49.424;2022-08-25T16:56:17;25.72;51.30
67547;HTU21D;54381;53.516;49.424;2022-08-25T16:58:59;25.58;52.49
67547;HTU21D;54381;53.516;49.424;2022-08-25T17:01:28;25.60;53.17
67547;HTU21D;54381;53.516;49.424;2022-08-25T17:03:56;25.46;53.47
67547;HTU21D;54381;53.516;49.424;2022-08-25T17:06:24;25.36;52.55
67547;HTU21D;54381;53.516;49.424;2022-08-25T17:08:50;25.34;53.05
67547;HTU21D;54381;53.516;49.424;2022-08-25T17:11:23;25.39;52.91
67547;HTU21D;54381;53.516;49.424;2022-08-25T17:13:54;25.38;54.02
67547;HTU21D;54381;53.516;49.424;2022-08-25T17:16:22;25.32;53.16
67547;HTU21D;54381;53.516;49.424;2022-08-25T17:18:53;25.36;53.22
67547;HTU21D;54381;53.516;49.424;2022-08-25T17:21:20;25.27;53.44
67547;HTU21D;54381;53.516;49.424;2022-08-25T17:23:47;25.09;52.91